sensor_id;sensor_type;location;lat;lon;timestamp;temperature;humidity
48666;DHT22;34452;50.796;4.994;2023-04-19T00:01:26;9.30;99.90
48666;DHT22;34452;50.796;4.994;2023-04-19T00:03:54;9.30;99.90
48666;DHT22;34452;50.796;4.994;2023-04-19T00:06:21;9.30;99.90
48666;DHT22;34452;50.796;4.994;2023-04-19T00:08:47;9.30;99.90
48666;DHT22;34452;50.796;4.994;2023-04-19T00:11:12;9.30;99.90
48666;DHT22;34452;50.796;4.994;2023-04-19T00:13:38;9.30;99.90
48666;DHT22;34452;50.796;4.994;2023-04-19T00:16:04;9.30;99.90
48666;DHT22;34452;50.796;4.994;2023-04-19T00:18:30;9.40;99.90
48666;DHT22;34452;50.796;4.994;2023-04-19T00:20:56;9.40;99.90
48666;DHT22;34452;50.796;4.994;2023-04-19T00:23:22;9.50;99.90
48666;DHT22;34452;50.796;4.994;2023-04-19T00:25:48;9.60;99.90
48666;DHT22;34452;50.796;4.994;2023-04-19T00:28:14;9.70;99.90
48666;DHT22;34452;50.796;4.994;2023-04-19T00:30:40;9.70;99.90
48666;DHT22;34452;50.796;4.994;2023-04-19T00:33:06;9.80;99.90
48666;DHT22;34452;50.796;4.994;2023-04-19T00:35:39;9.90;99.90
48666;DHT22;34452;50.796;4.994;2023-04-19T00:38:05;10.00;99.90
48666;DHT22;34452;50.796;4.994;2023-04-19T00:40:31;10.10;99.90
48666;DHT22;34452;50.796;4.994;2023-04-19T00:42:57;10.10;99.90
48666;DHT22;34452;50.796;4.994;2023-04-19T00:45:22;10.20;99.90
48666;DHT22;34452;50.796;4.994;2023-04-19T00:47:48;10.20;99.90
48666;DHT22;34452;50.796;4.994;2023-04-19T00:50:14;10.20;99.90
48666;DHT22;34452;50.796;4.994;2023-04-19T00:52:40;10.30;99.90
48666;DHT22;34452;50.796;4.994;2023-04-19T00:55:07;10.30;99.90
48666;DHT22;34452;50.796;4.994;2023-04-19T00:57:32;10.40;99.90
48666;DHT22;34452;50.796;4.994;2023-04-19T00:59:58;10.40;99.90
48666;DHT22;34452;50.796;4.994;2023-04-19T01:02:24;10.30;99.90
48666;DHT22;34452;50.796;4.994;2023-04-19T01:04:50;10.30;99.90
48666;DHT22;34452;50.796;4.994;2023-04-19T01:07:17;10.30;99.90
48666;DHT22;34452;50.796;4.994;2023-04-19T01:09:44;10.30;99.90
48666;DHT22;34452;50.796;4.994;2023-04-19T01:12:10;10.40;99.90
48666;DHT22;34452;50.796;4.994;2023-04-19T01:14:36;10.40;99.90
48666;DHT22;34452;50.796;4.994;2023-04-19T01:17:02;10.40;99.90
48666;DHT22;34452;50.796;4.994;2023-04-19T01:19:27;10.40;99.90
48666;DHT22;34452;50.796;4.994;2023-04-19T01:21:53;10.40;99.90
48666;DHT22;34452;50.796;4.994;2023-04-19T01:24:20;10.40;99.90
48666;DHT22;34452;50.796;4.994;2023-04-19T01:26:46;10.40;99.90
48666;DHT22;34452;50.796;4.994;2023-04-19T01:29:12;10.50;99.90
48666;DHT22;34452;50.796;4.994;2023-04-19T01:31:38;10.50;99.90
48666;DHT22;34452;50.796;4.994;2023-04-19T01:34:04;10.50;99.90
48666;DHT22;34452;50.796;4.994;2023-04-19T01:36:30;10.50;99.90
48666;DHT22;34452;50.796;4.994;2023-04-19T01:38:56;10.50;99.90
48666;DHT22;34452;50.796;4.994;2023-04-19T01:41:22;10.50;99.90
48666;DHT22;34452;50.796;4.994;2023-04-19T01:43:51;10.50;99.90
48666;DHT22;34452;50.796;4.994;2023-04-19T01:46:17;10.50;99.90
48666;DHT22;34452;50.796;4.994;2023-04-19T01:48:43;10.50;99.90
48666;DHT22;34452;50.796;4.994;2023-04-19T01:51:08;10.50;99.90
48666;DHT22;34452;50.796;4.994;2023-04-19T01:53:34;10.50;99.90
48666;DHT22;34452;50.796;4.994;2023-04-19T01:56:00;10.60;99.90
48666;DHT22;34452;50.796;4.994;2023-04-19T01:58:25;10.50;99.90
48666;DHT22;34452;50.796;4.994;2023-04-19T02:00:51;10.60;99.90
48666;DHT22;34452;50.796;4.994;2023-04-19T02:03:17;10.60;99.90
48666;DHT22;34452;50.796;4.994;2023-04-19T02:05:42;10.60;99.90
48666;DHT22;34452;50.796;4.994;2023-04-19T02:08:08;10.60;99.90
48666;DHT22;34452;50.796;4.994;2023-04-19T02:10:34;10.60;99.90
48666;DHT22;34452;50.796;4.994;2023-04-19T02:13:00;10.60;99.90
48666;DHT22;34452;50.796;4.994;2023-04-19T02:15:26;10.50;99.90
48666;DHT22;34452;50.796;4.994;2023-04-19T02:17:51;10.50;99.90
48666;DHT22;34452;50.796;4.994;2023-04-19T02:20:17;10.60;99.90
48666;DHT22;34452;50.796;4.994;2023-04-19T02:22:43;10.60;99.90
48666;DHT22;34452;50.796;4.994;2023-04-19T02:25:08;10.60;99.90
48666;DHT22;34452;50.796;4.994;2023-04-19T02:27:34;10.60;99.90
48666;DHT22;34452;50.796;4.994;2023-04-19T02:30:00;10.60;99.90
48666;DHT22;34452;50.796;4.994;2023-04-19T02:32:26;10.50;99.90
48666;DHT22;34452;50.796;4.994;2023-04-19T02:34:52;10.50;99.90
48666;DHT22;34452;50.796;4.994;2023-04-19T02:37:17;10.50;99.90
48666;DHT22;34452;50.796;4.994;2023-04-19T02:39:43;10.60;99.90
48666;DHT22;34452;50.796;4.994;2023-04-19T02:42:10;10.60;99.90
48666;DHT22;34452;50.796;4.994;2023-04-19T02:44:36;10.50;99.90
48666;DHT22;34452;50.796;4.994;2023-04-19T02:47:01;10.60;99.90
48666;DHT22;34452;50.796;4.994;2023-04-19T02:49:29;10.50;99.90
48666;DHT22;34452;50.796;4.994;2023-04-19T02:51:59;10.60;99.90
48666;DHT22;34452;50.796;4.994;2023-04-19T02:54:24;10.50;99.90
48666;DHT22;34452;50.796;4.994;2023-04-19T02:56:50;10.40;99.90
48666;DHT22;34452;50.796;4.994;2023-04-19T02:59:16;10.30;99.90
48666;DHT22;34452;50.796;4.994;2023-04-19T03:01:41;10.20;99.90
48666;DHT22;34452;50.796;4.994;2023-04-19T03:04:07;10.20;99.90
48666;DHT22;34452;50.796;4.994;2023-04-19T03:06:33;10.10;99.90
48666;DHT22;34452;50.796;4.994;2023-04-19T03:08:58;10.10;99.90
48666;DHT22;34452;50.796;4.994;2023-04-19T03:11:24;10.00;99.90
48666;DHT22;34452;50.796;4.994;2023-04-19T03:13:50;10.00;99.90
48666;DHT22;34452;50.796;4.994;2023-04-19T03:16:15;9.90;99.90
48666;DHT22;34452;50.796;4.994;2023-04-19T03:18:41;9.90;99.90
48666;DHT22;34452;50.796;4.994;2023-04-19T03:21:07;9.90;99.90
48666;DHT22;34452;50.796;4.994;2023-04-19T03:23:34;9.90;99.90
48666;DHT22;34452;50.796;4.994;2023-04-19T03:25:59;9.80;99.90
48666;DHT22;34452;50.796;4.994;2023-04-19T03:28:26;9.80;99.90
48666;DHT22;34452;50.796;4.994;2023-04-19T03:30:51;9.80;99.90
48666;DHT22;34452;50.796;4.994;2023-04-19T03:33:17;9.80;99.90
48666;DHT22;34452;50.796;4.994;2023-04-19T03:35:43;9.70;99.90
48666;DHT22;34452;50.796;4.994;2023-04-19T03:38:10;9.70;99.90
48666;DHT22;34452;50.796;4.994;2023-04-19T03:40:36;9.80;99.90
48666;DHT22;34452;50.796;4.994;2023-04-19T03:43:02;9.70;99.90
48666;DHT22;34452;50.796;4.994;2023-04-19T03:45:29;9.70;99.90
48666;DHT22;34452;50.796;4.994;2023-04-19T03:47:55;9.70;99.90
48666;DHT22;34452;50.796;4.994;2023-04-19T03:50:21;9.70;99.90
48666;DHT22;34452;50.796;4.994;2023-04-19T03:52:47;9.70;99.90
48666;DHT22;34452;50.796;4.994;2023-04-19T03:55:12;9.70;99.90
48666;DHT22;34452;50.796;4.994;2023-04-19T03:57:38;9.70;99.90
48666;DHT22;34452;50.796;4.994;2023-04-19T04:00:05;9.70;99.90
48666;DHT22;34452;50.796;4.994;2023-04-19T04:02:33;9.70;99.90
48666;DHT22;34452;50.796;4.994;2023-04-19T04:05:01;9.70;99.90
48666;DHT22;34452;50.796;4.994;2023-04-19T04:07:26;9.70;99.90
48666;DHT22;34452;50.796;4.994;2023-04-19T04:09:52;9.60;99.90
48666;DHT22;34452;50.796;4.994;2023-04-19T04:12:17;9.70;99.90
48666;DHT22;34452;50.796;4.994;2023-04-19T04:14:43;9.70;99.90
48666;DHT22;34452;50.796;4.994;2023-04-19T04:17:09;9.60;99.90
48666;DHT22;34452;50.796;4.994;2023-04-19T04:19:35;9.60;99.90
48666;DHT22;34452;50.796;4.994;2023-04-19T04:22:01;9.60;99.90
48666;DHT22;34452;50.796;4.994;2023-04-19T04:24:26;9.60;99.90
48666;DHT22;34452;50.796;4.994;2023-04-19T04:26:52;9.60;99.90
48666;DHT22;34452;50.796;4.994;2023-04-19T04:29:18;9.60;99.90
48666;DHT22;34452;50.796;4.994;2023-04-19T04:31:43;9.50;99.90
48666;DHT22;34452;50.796;4.994;2023-04-19T04:34:09;9.50;99.90
48666;DHT22;34452;50.796;4.994;2023-04-19T04:36:35;9.40;99.90
48666;DHT22;34452;50.796;4.994;2023-04-19T04:39:03;9.40;99.90
48666;DHT22;34452;50.796;4.994;2023-04-19T04:41:29;9.40;99.90
48666;DHT22;34452;50.796;4.994;2023-04-19T04:43:56;9.40;99.90
48666;DHT22;34452;50.796;4.994;2023-04-19T04:46:23;9.40;99.90
48666;DHT22;34452;50.796;4.994;2023-04-19T04:48:48;9.40;99.90
48666;DHT22;34452;50.796;4.994;2023-04-19T04:51:14;9.50;99.90
48666;DHT22;34452;50.796;4.994;2023-04-19T04:53:40;9.40;99.90
48666;DHT22;34452;50.796;4.994;2023-04-19T04:56:05;9.40;99.90
48666;DHT22;34452;50.796;4.994;2023-04-19T04:58:31;9.40;99.90
48666;DHT22;34452;50.796;4.994;2023-04-19T05:00:57;9.40;99.90
48666;DHT22;34452;50.796;4.994;2023-04-19T05:03:22;9.40;99.90
48666;DHT22;34452;50.796;4.994;2023-04-19T05:05:48;9.40;99.90
48666;DHT22;34452;50.796;4.994;2023-04-19T05:08:14;9.40;99.90
48666;DHT22;34452;50.796;4.994;2023-04-19T05:10:40;9.30;99.90
48666;DHT22;34452;50.796;4.994;2023-04-19T05:13:05;9.40;99.90
48666;DHT22;34452;50.796;4.994;2023-04-19T05:15:31;9.30;99.90
48666;DHT22;34452;50.796;4.994;2023-04-19T05:17:57;9.40;99.90
48666;DHT22;34452;50.796;4.994;2023-04-19T05:20:22;9.40;99.90
48666;DHT22;34452;50.796;4.994;2023-04-19T05:22:48;9.40;99.90
48666;DHT22;34452;50.796;4.994;2023-04-19T05:25:14;9.50;99.90
48666;DHT22;34452;50.796;4.994;2023-04-19T05:27:39;9.50;99.90
48666;DHT22;34452;50.796;4.994;2023-04-19T05:30:05;9.50;99.90
48666;DHT22;34452;50.796;4.994;2023-04-19T05:32:31;9.60;99.90
48666;DHT22;34452;50.796;4.994;2023-04-19T05:34:57;9.60;99.90
48666;DHT22;34452;50.796;4.994;2023-04-19T05:37:23;9.70;99.90
48666;DHT22;34452;50.796;4.994;2023-04-19T05:39:48;9.80;99.90
48666;DHT22;34452;50.796;4.994;2023-04-19T05:42:14;9.80;99.90
48666;DHT22;34452;50.796;4.994;2023-04-19T05:44:40;9.90;99.90
48666;DHT22;34452;50.796;4.994;2023-04-19T05:47:06;10.00;99.90
48666;DHT22;34452;50.796;4.994;2023-04-19T05:49:31;10.00;99.90
48666;DHT22;34452;50.796;4.994;2023-04-19T05:51:57;10.00;99.90
48666;DHT22;34452;50.796;4.994;2023-04-19T05:54:23;10.10;99.90
48666;DHT22;34452;50.796;4.994;2023-04-19T05:56:48;10.20;99.90
48666;DHT22;34452;50.796;4.994;2023-04-19T05:59:14;10.20;99.90
48666;DHT22;34452;50.796;4.994;2023-04-19T06:01:40;10.30;99.90
48666;DHT22;34452;50.796;4.994;2023-04-19T06:04:05;10.30;99.90
48666;DHT22;34452;50.796;4.994;2023-04-19T06:06:31;10.40;99.90
48666;DHT22;34452;50.796;4.994;2023-04-19T06:08:57;10.50;99.90
48666;DHT22;34452;50.796;4.994;2023-04-19T06:11:22;10.50;99.90
48666;DHT22;34452;50.796;4.994;2023-04-19T06:13:48;10.60;99.90
48666;DHT22;34452;50.796;4.994;2023-04-19T06:16:15;10.60;99.90
48666;DHT22;34452;50.796;4.994;2023-04-19T06:18:41;10.70;99.90
48666;DHT22;34452;50.796;4.994;2023-04-19T06:21:07;10.70;99.90
48666;DHT22;34452;50.796;4.994;2023-04-19T06:23:33;10.80;99.90
48666;DHT22;34452;50.796;4.994;2023-04-19T06:25:59;10.80;99.90
48666;DHT22;34452;50.796;4.994;2023-04-19T06:28:24;10.90;99.90
48666;DHT22;34452;50.796;4.994;2023-04-19T06:30:50;10.90;99.90
48666;DHT22;34452;50.796;4.994;2023-04-19T06:33:16;11.00;99.90
48666;DHT22;34452;50.796;4.994;2023-04-19T06:35:41;11.10;99.90
48666;DHT22;34452;50.796;4.994;2023-04-19T06:38:07;11.10;99.90
48666;DHT22;34452;50.796;4.994;2023-04-19T06:40:33;11.10;99.90
48666;DHT22;34452;50.796;4.994;2023-04-19T06:42:59;11.10;99.90
48666;DHT22;34452;50.796;4.994;2023-04-19T06:45:25;11.20;99.90
48666;DHT22;34452;50.796;4.994;2023-04-19T06:47:51;11.20;99.90
48666;DHT22;34452;50.796;4.994;2023-04-19T06:50:16;11.30;99.90
48666;DHT22;34452;50.796;4.994;2023-04-19T06:52:42;11.40;99.90
48666;DHT22;34452;50.796;4.994;2023-04-19T06:55:08;11.50;99.90
48666;DHT22;34452;50.796;4.994;2023-04-19T06:57:34;11.50;99.90
48666;DHT22;34452;50.796;4.994;2023-04-19T07:00:00;11.60;99.90
48666;DHT22;34452;50.796;4.994;2023-04-19T07:02:26;11.70;99.90
48666;DHT22;34452;50.796;4.994;2023-04-19T07:04:51;11.70;99.90
48666;DHT22;34452;50.796;4.994;2023-04-19T07:07:17;11.80;99.90
48666;DHT22;34452;50.796;4.994;2023-04-19T07:09:43;11.90;99.90
48666;DHT22;34452;50.796;4.994;2023-04-19T07:12:08;12.00;99.90
48666;DHT22;34452;50.796;4.994;2023-04-19T07:14:35;12.00;99.90
48666;DHT22;34452;50.796;4.994;2023-04-19T07:17:00;12.10;99.90
48666;DHT22;34452;50.796;4.994;2023-04-19T07:19:28;12.20;99.90
48666;DHT22;34452;50.796;4.994;2023-04-19T07:21:53;12.20;99.90
48666;DHT22;34452;50.796;4.994;2023-04-19T07:24:19;12.30;99.90
48666;DHT22;34452;50.796;4.994;2023-04-19T07:26:45;12.30;99.90
48666;DHT22;34452;50.796;4.994;2023-04-19T07:29:10;12.40;99.90
48666;DHT22;34452;50.796;4.994;2023-04-19T07:31:36;12.50;99.90
48666;DHT22;34452;50.796;4.994;2023-04-19T07:34:02;12.60;99.90
48666;DHT22;34452;50.796;4.994;2023-04-19T07:36:28;12.60;99.90
48666;DHT22;34452;50.796;4.994;2023-04-19T07:38:54;12.60;99.90
48666;DHT22;34452;50.796;4.994;2023-04-19T07:41:19;12.60;99.90
48666;DHT22;34452;50.796;4.994;2023-04-19T07:43:45;12.60;99.90
48666;DHT22;34452;50.796;4.994;2023-04-19T07:46:12;12.80;99.90
48666;DHT22;34452;50.796;4.994;2023-04-19T07:48:38;12.90;99.90
48666;DHT22;34452;50.796;4.994;2023-04-19T07:51:19;12.90;99.90
48666;DHT22;34452;50.796;4.994;2023-04-19T07:53:49;13.00;99.90
48666;DHT22;34452;50.796;4.994;2023-04-19T07:56:15;13.00;99.90
48666;DHT22;34452;50.796;4.994;2023-04-19T07:58:40;13.00;99.90
48666;DHT22;34452;50.796;4.994;2023-04-19T08:01:06;13.10;99.90
48666;DHT22;34452;50.796;4.994;2023-04-19T08:03:33;13.10;99.90
48666;DHT22;34452;50.796;4.994;2023-04-19T08:06:01;13.20;99.90
48666;DHT22;34452;50.796;4.994;2023-04-19T08:08:27;13.30;99.90
48666;DHT22;34452;50.796;4.994;2023-04-19T08:10:53;13.40;99.90
48666;DHT22;34452;50.796;4.994;2023-04-19T08:13:20;13.50;99.90
48666;DHT22;34452;50.796;4.994;2023-04-19T08:15:46;13.60;99.90
48666;DHT22;34452;50.796;4.994;2023-04-19T08:18:11;13.70;99.90
48666;DHT22;34452;50.796;4.994;2023-04-19T08:20:37;13.70;99.90
48666;DHT22;34452;50.796;4.994;2023-04-19T08:23:03;13.70;99.90
48666;DHT22;34452;50.796;4.994;2023-04-19T08:25:30;13.80;99.90
48666;DHT22;34452;50.796;4.994;2023-04-19T08:27:56;13.80;99.90
48666;DHT22;34452;50.796;4.994;2023-04-19T08:30:23;13.80;99.90
48666;DHT22;34452;50.796;4.994;2023-04-19T08:32:48;13.90;99.90
48666;DHT22;34452;50.796;4.994;2023-04-19T08:35:15;13.90;99.90
48666;DHT22;34452;50.796;4.994;2023-04-19T08:37:41;13.90;99.90
48666;DHT22;34452;50.796;4.994;2023-04-19T08:40:08;13.90;99.90
48666;DHT22;34452;50.796;4.994;2023-04-19T08:42:35;14.00;99.90
48666;DHT22;34452;50.796;4.994;2023-04-19T08:45:01;14.00;99.90
48666;DHT22;34452;50.796;4.994;2023-04-19T08:47:31;14.00;99.90
48666;DHT22;34452;50.796;4.994;2023-04-19T08:49:59;14.00;99.90
48666;DHT22;34452;50.796;4.994;2023-04-19T08:52:26;13.90;99.90
48666;DHT22;34452;50.796;4.994;2023-04-19T08:54:53;14.00;99.90
48666;DHT22;34452;50.796;4.994;2023-04-19T08:57:19;14.10;99.90
48666;DHT22;34452;50.796;4.994;2023-04-19T08:59:45;14.10;99.90
48666;DHT22;34452;50.796;4.994;2023-04-19T09:02:15;14.00;99.90
48666;DHT22;34452;50.796;4.994;2023-04-19T09:04:41;14.00;99.90
48666;DHT22;34452;50.796;4.994;2023-04-19T09:07:06;14.10;99.90
48666;DHT22;34452;50.796;4.994;2023-04-19T09:09:33;14.20;99.90
48666;DHT22;34452;50.796;4.994;2023-04-19T09:12:00;14.30;99.90
48666;DHT22;34452;50.796;4.994;2023-04-19T09:14:27;14.50;99.90
48666;DHT22;34452;50.796;4.994;2023-04-19T09:16:53;14.40;99.90
48666;DHT22;34452;50.796;4.994;2023-04-19T09:19:19;14.40;99.90
48666;DHT22;34452;50.796;4.994;2023-04-19T09:21:45;14.20;99.90
48666;DHT22;34452;50.796;4.994;2023-04-19T09:24:11;14.00;99.90
48666;DHT22;34452;50.796;4.994;2023-04-19T09:26:36;14.00;99.90
48666;DHT22;34452;50.796;4.994;2023-04-19T09:29:05;13.80;99.90
48666;DHT22;34452;50.796;4.994;2023-04-19T09:31:34;13.80;99.90
48666;DHT22;34452;50.796;4.994;2023-04-19T09:34:15;14.00;99.90
48666;DHT22;34452;50.796;4.994;2023-04-19T09:36:41;14.10;99.90
48666;DHT22;34452;50.796;4.994;2023-04-19T09:39:07;14.20;99.90
48666;DHT22;34452;50.796;4.994;2023-04-19T09:41:33;14.30;99.90
48666;DHT22;34452;50.796;4.994;2023-04-19T09:44:10;14.50;99.90
48666;DHT22;34452;50.796;4.994;2023-04-19T09:46:37;14.70;99.90
48666;DHT22;34452;50.796;4.994;2023-04-19T09:54:08;15.00;99.90
48666;DHT22;34452;50.796;4.994;2023-04-19T09:56:35;14.70;99.90
48666;DHT22;34452;50.796;4.994;2023-04-19T09:59:03;14.70;99.90
48666;DHT22;34452;50.796;4.994;2023-04-19T10:01:34;15.00;99.90
48666;DHT22;34452;50.796;4.994;2023-04-19T10:04:02;15.10;99.90
48666;DHT22;34452;50.796;4.994;2023-04-19T10:06:28;15.10;99.90
48666;DHT22;34452;50.796;4.994;2023-04-19T10:08:54;15.40;99.90
48666;DHT22;34452;50.796;4.994;2023-04-19T10:11:20;15.70;99.90
48666;DHT22;34452;50.796;4.994;2023-04-19T10:13:46;15.80;99.90
48666;DHT22;34452;50.796;4.994;2023-04-19T10:16:13;15.60;98.30
48666;DHT22;34452;50.796;4.994;2023-04-19T10:18:39;15.70;96.60
48666;DHT22;34452;50.796;4.994;2023-04-19T10:21:07;15.40;97.10
48666;DHT22;34452;50.796;4.994;2023-04-19T10:23:36;15.20;97.10
48666;DHT22;34452;50.796;4.994;2023-04-19T10:26:02;15.40;98.60
48666;DHT22;34452;50.796;4.994;2023-04-19T10:28:28;15.60;98.00
48666;DHT22;34452;50.796;4.994;2023-04-19T10:31:11;15.70;97.70
48666;DHT22;34452;50.796;4.994;2023-04-19T10:33:38;15.80;96.70
48666;DHT22;34452;50.796;4.994;2023-04-19T10:36:08;16.00;96.20
48666;DHT22;34452;50.796;4.994;2023-04-19T10:38:53;16.00;95.40
48666;DHT22;34452;50.796;4.994;2023-04-19T10:41:20;15.60;96.10
48666;DHT22;34452;50.796;4.994;2023-04-19T10:44:07;15.70;96.30
48666;DHT22;34452;50.796;4.994;2023-04-19T10:49:01;15.40;95.50
48666;DHT22;34452;50.796;4.994;2023-04-19T10:51:38;15.20;95.80
48666;DHT22;34452;50.796;4.994;2023-04-19T10:54:08;15.30;95.80
48666;DHT22;34452;50.796;4.994;2023-04-19T11:01:43;15.10;95.40
48666;DHT22;34452;50.796;4.994;2023-04-19T11:04:11;15.10;95.70
48666;DHT22;34452;50.796;4.994;2023-04-19T11:06:56;15.10;96.10
48666;DHT22;34452;50.796;4.994;2023-04-19T11:09:56;15.40;97.00
48666;DHT22;34452;50.796;4.994;2023-04-19T11:12:23;15.80;94.50
48666;DHT22;34452;50.796;4.994;2023-04-19T11:14:52;15.80;93.90
48666;DHT22;34452;50.796;4.994;2023-04-19T11:17:21;16.00;94.10
48666;DHT22;34452;50.796;4.994;2023-04-19T11:20:04;16.00;93.60
48666;DHT22;34452;50.796;4.994;2023-04-19T11:22:48;16.30;91.80
48666;DHT22;34452;50.796;4.994;2023-04-19T11:25:15;16.10;90.70
48666;DHT22;34452;50.796;4.994;2023-04-19T11:27:45;16.30;90.90
48666;DHT22;34452;50.796;4.994;2023-04-19T11:30:13;16.60;90.50
48666;DHT22;34452;50.796;4.994;2023-04-19T11:32:54;16.70;85.90
48666;DHT22;34452;50.796;4.994;2023-04-19T11:35:24;16.80;86.70
48666;DHT22;34452;50.796;4.994;2023-04-19T11:37:50;16.90;87.20
48666;DHT22;34452;50.796;4.994;2023-04-19T11:40:18;16.60;83.60
48666;DHT22;34452;50.796;4.994;2023-04-19T11:42:44;16.60;82.50
48666;DHT22;34452;50.796;4.994;2023-04-19T11:45:11;16.60;82.40
48666;DHT22;34452;50.796;4.994;2023-04-19T11:47:48;16.70;82.20
48666;DHT22;34452;50.796;4.994;2023-04-19T11:50:34;16.70;77.80
48666;DHT22;34452;50.796;4.994;2023-04-19T11:53:13;16.70;74.50
48666;DHT22;34452;50.796;4.994;2023-04-19T11:55:43;16.90;74.10
48666;DHT22;34452;50.796;4.994;2023-04-19T12:01:08;17.10;68.30
48666;DHT22;34452;50.796;4.994;2023-04-19T12:06:11;17.50;71.60
48666;DHT22;34452;50.796;4.994;2023-04-19T12:08:41;17.60;67.60
48666;DHT22;34452;50.796;4.994;2023-04-19T12:11:07;17.80;65.80
48666;DHT22;34452;50.796;4.994;2023-04-19T12:13:33;17.80;64.40
48666;DHT22;34452;50.796;4.994;2023-04-19T12:15:59;17.90;64.80
48666;DHT22;34452;50.796;4.994;2023-04-19T12:18:25;18.10;62.20
48666;DHT22;34452;50.796;4.994;2023-04-19T12:20:51;18.10;59.50
48666;DHT22;34452;50.796;4.994;2023-04-19T12:23:19;18.20;59.50
48666;DHT22;34452;50.796;4.994;2023-04-19T12:25:46;17.60;56.60
48666;DHT22;34452;50.796;4.994;2023-04-19T12:28:14;17.50;59.00
48666;DHT22;34452;50.796;4.994;2023-04-19T12:30:40;17.60;56.40
48666;DHT22;34452;50.796;4.994;2023-04-19T12:33:07;17.60;57.30
48666;DHT22;34452;50.796;4.994;2023-04-19T12:35:33;17.70;54.50
48666;DHT22;34452;50.796;4.994;2023-04-19T12:38:00;17.50;53.40
48666;DHT22;34452;50.796;4.994;2023-04-19T12:40:29;17.60;54.00
48666;DHT22;34452;50.796;4.994;2023-04-19T12:42:54;17.60;56.30
48666;DHT22;34452;50.796;4.994;2023-04-19T12:45:20;17.70;55.10
48666;DHT22;34452;50.796;4.994;2023-04-19T12:47:47;18.00;56.00
48666;DHT22;34452;50.796;4.994;2023-04-19T12:50:14;18.00;55.60
48666;DHT22;34452;50.796;4.994;2023-04-19T12:52:41;18.20;52.70
48666;DHT22;34452;50.796;4.994;2023-04-19T12:55:07;18.20;51.70
48666;DHT22;34452;50.796;4.994;2023-04-19T12:57:33;18.00;48.80
48666;DHT22;34452;50.796;4.994;2023-04-19T12:59:59;18.00;47.10
48666;DHT22;34452;50.796;4.994;2023-04-19T13:02:24;17.70;47.30
48666;DHT22;34452;50.796;4.994;2023-04-19T13:04:50;18.10;50.20
48666;DHT22;34452;50.796;4.994;2023-04-19T13:07:16;18.50;50.70
48666;DHT22;34452;50.796;4.994;2023-04-19T13:09:41;18.70;49.40
48666;DHT22;34452;50.796;4.994;2023-04-19T13:12:08;18.90;47.60
48666;DHT22;34452;50.796;4.994;2023-04-19T13:14:33;18.80;46.00
48666;DHT22;34452;50.796;4.994;2023-04-19T13:16:59;18.80;49.20
48666;DHT22;34452;50.796;4.994;2023-04-19T13:19:25;17.90;47.20
48666;DHT22;34452;50.796;4.994;2023-04-19T13:21:51;17.90;48.40
48666;DHT22;34452;50.796;4.994;2023-04-19T13:24:17;18.40;49.00
48666;DHT22;34452;50.796;4.994;2023-04-19T13:26:42;18.70;47.10
48666;DHT22;34452;50.796;4.994;2023-04-19T13:29:10;18.90;49.00
48666;DHT22;34452;50.796;4.994;2023-04-19T13:31:36;18.30;46.70
48666;DHT22;34452;50.796;4.994;2023-04-19T13:34:02;18.50;48.50
48666;DHT22;34452;50.796;4.994;2023-04-19T13:36:28;18.80;47.00
48666;DHT22;34452;50.796;4.994;2023-04-19T13:38:53;18.80;45.20
48666;DHT22;34452;50.796;4.994;2023-04-19T13:41:20;18.70;46.00
48666;DHT22;34452;50.796;4.994;2023-04-19T13:43:46;18.40;46.30
48666;DHT22;34452;50.796;4.994;2023-04-19T13:46:12;18.10;46.90
48666;DHT22;34452;50.796;4.994;2023-04-19T13:48:38;17.60;46.50
48666;DHT22;34452;50.796;4.994;2023-04-19T13:51:06;18.10;46.50
48666;DHT22;34452;50.796;4.994;2023-04-19T13:53:31;18.00;45.80
48666;DHT22;34452;50.796;4.994;2023-04-19T13:55:57;17.90;43.60
48666;DHT22;34452;50.796;4.994;2023-04-19T13:58:23;18.10;45.10
48666;DHT22;34452;50.796;4.994;2023-04-19T14:00:49;18.10;43.90
48666;DHT22;34452;50.796;4.994;2023-04-19T14:03:15;18.20;45.30
48666;DHT22;34452;50.796;4.994;2023-04-19T14:05:41;18.60;47.80
48666;DHT22;34452;50.796;4.994;2023-04-19T14:08:07;18.90;46.50
48666;DHT22;34452;50.796;4.994;2023-04-19T14:10:33;18.40;42.10
48666;DHT22;34452;50.796;4.994;2023-04-19T14:12:59;18.00;43.40
48666;DHT22;34452;50.796;4.994;2023-04-19T14:15:25;18.20;43.50
48666;DHT22;34452;50.796;4.994;2023-04-19T14:17:51;18.30;45.50
48666;DHT22;34452;50.796;4.994;2023-04-19T14:20:18;18.60;46.00
48666;DHT22;34452;50.796;4.994;2023-04-19T14:22:45;18.90;43.10
48666;DHT22;34452;50.796;4.994;2023-04-19T14:25:12;19.10;42.90
48666;DHT22;34452;50.796;4.994;2023-04-19T14:27:41;19.00;41.70
48666;DHT22;34452;50.796;4.994;2023-04-19T14:30:07;19.10;40.90
48666;DHT22;34452;50.796;4.994;2023-04-19T14:32:33;18.80;40.80
48666;DHT22;34452;50.796;4.994;2023-04-19T14:34:59;19.00;43.30
48666;DHT22;34452;50.796;4.994;2023-04-19T14:37:27;19.00;41.40
48666;DHT22;34452;50.796;4.994;2023-04-19T14:39:52;19.30;41.10
48666;DHT22;34452;50.796;4.994;2023-04-19T14:42:19;19.50;39.30
48666;DHT22;34452;50.796;4.994;2023-04-19T14:44:44;19.70;42.60
48666;DHT22;34452;50.796;4.994;2023-04-19T14:47:12;19.70;38.40
48666;DHT22;34452;50.796;4.994;2023-04-19T14:49:39;19.80;38.10
48666;DHT22;34452;50.796;4.994;2023-04-19T14:52:06;19.80;39.30
48666;DHT22;34452;50.796;4.994;2023-04-19T14:54:31;19.90;39.70
48666;DHT22;34452;50.796;4.994;2023-04-19T14:56:57;20.00;38.50
48666;DHT22;34452;50.796;4.994;2023-04-19T14:59:23;19.50;35.60
48666;DHT22;34452;50.796;4.994;2023-04-19T15:01:49;19.40;37.80
48666;DHT22;34452;50.796;4.994;2023-04-19T15:04:14;19.30;37.70
48666;DHT22;34452;50.796;4.994;2023-04-19T15:06:40;19.50;37.20
48666;DHT22;34452;50.796;4.994;2023-04-19T15:09:06;19.70;38.30
48666;DHT22;34452;50.796;4.994;2023-04-19T15:11:32;19.90;37.90
48666;DHT22;34452;50.796;4.994;2023-04-19T15:13:57;19.70;36.80
48666;DHT22;34452;50.796;4.994;2023-04-19T15:16:23;20.00;36.60
48666;DHT22;34452;50.796;4.994;2023-04-19T15:18:49;19.90;36.70
48666;DHT22;34452;50.796;4.994;2023-04-19T15:21:18;20.00;36.80
48666;DHT22;34452;50.796;4.994;2023-04-19T15:23:44;19.90;35.40
48666;DHT22;34452;50.796;4.994;2023-04-19T15:26:09;19.80;37.20
48666;DHT22;34452;50.796;4.994;2023-04-19T15:28:35;19.80;36.60
48666;DHT22;34452;50.796;4.994;2023-04-19T15:31:02;20.20;37.40
48666;DHT22;34452;50.796;4.994;2023-04-19T15:33:29;20.50;35.90
48666;DHT22;34452;50.796;4.994;2023-04-19T15:35:55;20.70;36.80
48666;DHT22;34452;50.796;4.994;2023-04-19T15:38:23;20.80;34.80
48666;DHT22;34452;50.796;4.994;2023-04-19T15:40:49;20.90;35.40
48666;DHT22;34452;50.796;4.994;2023-04-19T15:43:15;21.00;34.60
48666;DHT22;34452;50.796;4.994;2023-04-19T15:45:40;20.90;33.60
48666;DHT22;34452;50.796;4.994;2023-04-19T15:48:06;21.30;34.50
48666;DHT22;34452;50.796;4.994;2023-04-19T15:50:35;21.90;35.00